createdAt,value
2022-11-16T00:00:23.266Z,15.4
2022-11-16T00:06:11.906Z,17.8
2022-11-16T00:12:00.869Z,15.4
2022-11-16T00:17:49.658Z,17.2
2022-11-16T00:23:40.365Z,17.2
2022-11-16T00:29:29.948Z,16.9
2022-11-16T00:35:20.315Z,17.3
2022-11-16T00:41:10.230Z,19.3
2022-11-16T00:47:00.299Z,18.1
2022-11-16T00:52:52.332Z,19.5
2022-11-16T00:58:42.425Z,19
2022-11-16T01:04:34.827Z,16.9
2022-11-16T01:10:26.469Z,17.3
2022-11-16T01:16:17.410Z,15.6
2022-11-16T01:22:07.786Z,15.6
2022-11-16T01:28:00.308Z,17.2
2022-11-16T01:33:50.078Z,18
2022-11-16T01:40:46.437Z,18
2022-11-16T01:46:35.067Z,18.9
2022-11-16T01:52:25.938Z,20.3
2022-11-16T01:58:16.086Z,15.1
2022-11-16T02:04:07.317Z,15.7
2022-11-16T02:09:58.934Z,13.1
2022-11-16T02:15:48.451Z,13
2022-11-16T02:21:36.902Z,13.4
2022-11-16T02:27:27.363Z,13.4
2022-11-16T02:33:17.389Z,12
2022-11-16T02:39:11.681Z,11.5
2022-11-16T02:45:01.235Z,11.5
2022-11-16T02:50:51.547Z,13.9
2022-11-16T02:56:44.711Z,11.2
2022-11-16T03:02:34.647Z,12.5
2022-11-16T03:08:26.311Z,11.3
2022-11-16T03:14:19.182Z,9.9
2022-11-16T03:20:07.021Z,10.9
2022-11-16T03:25:56.691Z,11
2022-11-16T03:31:45.933Z,8.6
2022-11-16T03:37:34.567Z,8.5
2022-11-16T03:43:24.132Z,10.6
2022-11-16T03:49:16.175Z,8.8
2022-11-16T03:55:05.763Z,10.5
2022-11-16T04:00:55.932Z,14
2022-11-16T04:06:45.528Z,13.2
2022-11-16T04:12:36.523Z,14.6
2022-11-16T04:25:03.851Z,14
2022-11-16T04:31:21.269Z,13.8
2022-11-16T04:43:40.411Z,10.6
2022-11-16T04:56:36.700Z,12.1
2022-11-16T05:02:37.100Z,15.5
2022-11-16T05:08:59.368Z,14.9
2022-11-16T05:27:56.263Z,14.5
2022-11-16T05:33:59.253Z,13.7
2022-11-16T05:40:06.279Z,15.8
2022-11-16T05:45:57.062Z,13.2
2022-11-16T05:51:51.039Z,13.1
2022-11-16T05:58:07.870Z,9.9
2022-11-16T06:04:07.492Z,10.8
2022-11-16T06:10:07.583Z,13.9
2022-11-16T06:16:00.046Z,13.2
2022-11-16T06:21:54.447Z,14.1
2022-11-16T06:27:47.493Z,11.3
2022-11-16T06:33:39.715Z,13.7
2022-11-16T06:39:51.543Z,13.5
2022-11-16T06:45:50.858Z,12.3
2022-11-16T06:51:44.742Z,9.6
2022-11-16T06:57:39.991Z,11.5
2022-11-16T07:03:44.658Z,9.2
2022-11-16T07:09:43.431Z,9.5
2022-11-16T07:15:50.976Z,10.1
2022-11-16T07:21:55.804Z,9.8
2022-11-16T07:28:00.946Z,9.8
2022-11-16T07:34:25.648Z,10.6
2022-11-16T07:40:25.114Z,10.1
2022-11-16T07:59:10.695Z,14.1
2022-11-16T08:05:26.583Z,10.9
2022-11-16T08:11:27.765Z,11.4
2022-11-16T08:23:58.601Z,13.2
2022-11-16T08:42:11.700Z,15
2022-11-16T09:00:59.363Z,13
2022-11-16T09:07:21.695Z,14.1
2022-11-16T09:13:30.344Z,9.4
2022-11-16T09:19:39.130Z,13.8
2022-11-16T09:45:09.614Z,12.9
2022-11-16T09:57:19.048Z,13.6
2022-11-16T10:09:49.010Z,14.1
2022-11-16T10:15:52.823Z,15.2
2022-11-16T10:21:48.342Z,11.7
2022-11-16T10:27:44.540Z,10
2022-11-16T10:33:38.289Z,9.1
2022-11-16T10:39:31.672Z,15.1
2022-11-16T10:45:22.596Z,17.4
2022-11-16T10:51:15.974Z,15.8
2022-11-16T10:57:11.302Z,12.7
2022-11-16T11:03:01.185Z,15.7
2022-11-16T11:08:55.152Z,10.9
2022-11-16T11:14:45.753Z,12
2022-11-16T11:20:40.278Z,8.7
2022-11-16T11:26:41.082Z,7.4
2022-11-16T11:32:31.578Z,7.4
2022-11-16T11:38:24.783Z,9.3
2022-11-16T11:44:16.933Z,8.1
2022-11-16T11:50:07.320Z,7.2
2022-11-16T11:55:57.083Z,6.8
2022-11-16T12:01:48.851Z,5.2
2022-11-16T12:07:38.937Z,8.4
2022-11-16T12:13:29.838Z,8.2
2022-11-16T12:19:23.154Z,9.9
2022-11-16T12:25:15.038Z,7.6
2022-11-16T12:31:06.759Z,7.8
2022-11-16T12:36:57.649Z,8.2
2022-11-16T12:42:48.411Z,6.4
2022-11-16T12:48:43.107Z,13.5
2022-11-16T12:54:33.212Z,6.5
2022-11-16T13:00:23.997Z,7.5
2022-11-16T13:06:23.480Z,6.2
2022-11-16T13:12:17.880Z,11.1
2022-11-16T13:18:11.278Z,9.6
2022-11-16T13:24:07.420Z,14.7
2022-11-16T13:30:15.395Z,9.6
2022-11-16T13:36:19.625Z,16.6
2022-11-16T13:42:21.293Z,15.7
2022-11-16T13:48:19.368Z,11.5
2022-11-16T13:55:06.727Z,16
2022-11-16T14:01:29.724Z,12.9
2022-11-16T14:07:20.631Z,10.2
2022-11-16T14:13:21.221Z,10.4
2022-11-16T14:19:38.680Z,11.1
2022-11-16T14:25:36.204Z,8.6
2022-11-16T14:38:00.118Z,9.9
2022-11-16T14:43:53.673Z,6.6
2022-11-16T14:49:49.646Z,8.8
2022-11-16T14:55:40.776Z,14.1
2022-11-16T15:01:45.943Z,11.7
2022-11-16T15:08:04.328Z,12.7
2022-11-16T16:02:39.112Z,5.5
2022-11-16T18:01:53.043Z,11.8
2022-11-16T18:13:50.851Z,8.6
2022-11-16T18:31:37.213Z,10
2022-11-16T18:49:33.117Z,11.1
2022-11-16T18:56:46.841Z,19.3
2022-11-16T19:02:34.777Z,20.9
2022-11-16T19:08:25.629Z,10.2
2022-11-16T19:14:13.797Z,11.3
2022-11-16T19:20:01.964Z,8.8
2022-11-16T19:25:53.298Z,11.8
2022-11-16T19:31:45.604Z,9.9
2022-11-16T19:37:36.769Z,11.1
2022-11-16T19:43:27.051Z,11.2
2022-11-16T19:49:24.530Z,11.7
2022-11-16T19:55:14.461Z,8.7
2022-11-16T20:01:04.275Z,11
2022-11-16T20:06:54.730Z,10.4
2022-11-16T20:12:44.717Z,12.8
2022-11-16T20:18:35.192Z,14.8
2022-11-16T20:24:25.121Z,15.8
2022-11-16T20:30:16.048Z,15.1
2022-11-16T20:36:05.118Z,15.3
2022-11-16T20:41:54.006Z,11.9
2022-11-16T20:47:45.182Z,12.5
2022-11-16T20:53:36.966Z,15.5
2022-11-16T20:59:28.852Z,16.4
2022-11-16T21:05:20.912Z,13.5
2022-11-16T21:11:10.629Z,13.4
2022-11-16T21:17:00.474Z,15.4
2022-11-16T21:22:51.308Z,12.3
2022-11-16T21:28:40.937Z,10.4
2022-11-16T21:34:30.384Z,7.8
2022-11-16T21:40:26.941Z,13.1
2022-11-16T21:46:19.180Z,7.6
2022-11-16T21:52:09.535Z,9
2022-11-16T21:57:57.954Z,10.8
2022-11-16T22:03:46.682Z,10.1
2022-11-16T22:09:38.120Z,9.4
2022-11-16T22:15:31.657Z,8.1
2022-11-16T22:21:22.162Z,7.5
2022-11-16T22:27:14.221Z,9.3
2022-11-16T22:33:03.995Z,8.1
2022-11-16T22:38:54.960Z,9.9
2022-11-16T22:44:44.523Z,9.4
2022-11-16T22:50:35.256Z,9.2
2022-11-16T22:56:29.220Z,7.3
2022-11-16T23:02:21.834Z,6.7
2022-11-16T23:08:12.523Z,8.3
2022-11-16T23:14:05.720Z,8.5
2022-11-16T23:19:56.207Z,9.5
2022-11-16T23:25:44.709Z,6.2
2022-11-16T23:31:34.309Z,9.8
2022-11-16T23:37:22.742Z,7.5
2022-11-16T23:43:12.484Z,8
2022-11-16T23:49:02.988Z,6.5
2022-11-16T23:54:54.850Z,5.8
